Time;durP1;ratioP1;P1;durP2;ratioP2;P2;SDS_P1;SDS_P2;PMS_P1;PMS_P2;Temp;Humidity;BMP_temperature;BMP_pressure;BME280_temperature;BME280_humidity;BME280_pressure;Samples;Min_cycle;Max_cycle;Signal;HPM_P1;HPM_P2
2023/03/26 00:00:59;;;;;;;60.92;9.30;;;;;;;;;;4875755;29;20048;-52
2023/03/26 00:03:26;;;;;;;80.72;11.23;;;;;;;;;;4875812;29;20061;-54
2023/03/26 00:06:03;;;;;;;78.45;11.48;;;;;;;;;;4875639;29;20053;-57
2023/03/26 00:08:29;;;;;;;72.90;10.07;;;;;;;;;;4875397;29;20045;-54
2023/03/26 00:10:56;;;;;;;50.90;9.52;;;;;;;;;;4875539;29;20049;-57
2023/03/26 00:13:24;;;;;;;98.20;11.57;;;;;;;;;;4875118;29;20076;-53
2023/03/26 00:15:51;;;;;;;47.17;8.52;;;;;;;;;;4875587;29;20041;-57
2023/03/26 00:18:23;;;;;;;38.83;8.40;;;;;;;;;;4876675;29;20581;-54
2023/03/26 00:20:50;;;;;;;67.75;9.65;;;;;;;;;;4875217;29;20109;-53
2023/03/26 00:23:17;;;;;;;69.03;9.35;;;;;;;;;;4876189;29;20135;-54
2023/03/26 00:25:44;;;;;;;45.05;8.18;;;;;;;;;;4875162;29;20116;-54
2023/03/26 00:28:11;;;;;;;81.68;10.80;;;;;;;;;;4871540;29;20056;-52
2023/03/26 00:30:40;;;;;;;67.18;10.25;;;;;;;;;;4877352;29;20067;-64
2023/03/26 00:33:07;;;;;;;70.22;10.88;;;;;;;;;;4876233;29;20075;-63
2023/03/26 00:35:37;;;;;;;80.00;11.65;;;;;;;;;;4874926;29;20041;-63
2023/03/26 00:38:03;;;;;;;67.15;10.55;;;;;;;;;;4904845;29;20059;-63
2023/03/26 00:40:30;;;;;;;67.05;10.43;;;;;;;;;;4889889;29;20041;-64
2023/03/26 00:42:57;;;;;;;73.30;10.65;;;;;;;;;;4889305;29;21110;-63
2023/03/26 00:45:23;;;;;;;71.72;10.35;;;;;;;;;;4875195;29;20052;-63
2023/03/26 00:47:50;;;;;;;45.78;8.55;;;;;;;;;;4905718;29;20053;-63
2023/03/26 00:50:17;;;;;;;85.07;12.05;;;;;;;;;;4874442;29;20076;-64
2023/03/26 00:52:45;;;;;;;43.95;9.55;;;;;;;;;;4875051;29;20068;-63
2023/03/26 00:55:11;;;;;;;61.88;10.27;;;;;;;;;;4874975;29;20502;-63
2023/03/26 00:57:39;;;;;;;90.40;12.65;;;;;;;;;;4874974;29;20076;-64
2023/03/26 01:00:09;;;;;;;51.80;9.27;;;;;;;;;;4889912;29;20064;-63
2023/03/26 01:02:36;;;;;;;88.00;11.48;;;;;;;;;;4874620;29;20051;-63
2023/03/26 01:05:24;;;;;;;91.57;12.38;;;;;;;;;;4904391;29;20152;-63
2023/03/26 01:07:50;;;;;;;61.45;9.43;;;;;;;;;;4888008;29;20049;-63
2023/03/26 01:10:17;;;;;;;59.63;9.95;;;;;;;;;;4889229;29;20097;-63
2023/03/26 01:12:43;;;;;;;53.45;9.23;;;;;;;;;;4874534;29;20432;-63
2023/03/26 01:15:12;;;;;;;51.40;9.70;;;;;;;;;;4889108;29;20048;-63
2023/03/26 01:17:41;;;;;;;99.57;12.80;;;;;;;;;;4874210;29;20084;-63
2023/03/26 01:20:12;;;;;;;72.82;10.48;;;;;;;;;;4887888;29;20498;-63
2023/03/26 01:22:41;;;;;;;70.55;9.57;;;;;;;;;;4875027;29;20055;-63
2023/03/26 01:25:08;;;;;;;46.92;8.68;;;;;;;;;;4875116;29;20040;-63
2023/03/26 01:27:38;;;;;;;97.93;10.80;;;;;;;;;;4888890;29;20053;-63
2023/03/26 01:30:23;;;;;;;64.82;9.32;;;;;;;;;;4873519;29;20076;-62
2023/03/26 01:33:12;;;;;;;59.50;9.60;;;;;;;;;;4905298;29;20052;-63
2023/03/26 01:35:46;;;;;;;51.55;8.25;;;;;;;;;;4887450;29;20049;-63
2023/03/26 01:38:28;;;;;;;56.45;9.07;;;;;;;;;;4871249;29;20045;-63
2023/03/26 01:40:57;;;;;;;55.40;9.02;;;;;;;;;;4874394;29;20554;-63
2023/03/26 01:43:29;;;;;;;61.97;8.85;;;;;;;;;;4873233;29;20080;-62
2023/03/26 01:45:58;;;;;;;73.15;10.18;;;;;;;;;;4871191;29;20053;-63
2023/03/26 01:48:30;;;;;;;46.03;7.50;;;;;;;;;;4887995;29;20109;-63
2023/03/26 01:50:57;;;;;;;56.55;8.20;;;;;;;;;;4888153;29;20049;-63
2023/03/26 01:53:24;;;;;;;71.95;9.18;;;;;;;;;;4888259;29;20056;-63
2023/03/26 01:55:57;;;;;;;30.27;6.85;;;;;;;;;;4888523;29;20041;-62
2023/03/26 01:58:31;;;;;;;42.55;6.88;;;;;;;;;;4871008;29;20044;-63
2023/03/26 02:01:23;;;;;;;51.40;7.80;;;;;;;;;;4886515;29;20041;-63
2023/03/26 02:03:52;;;;;;;73.38;9.43;;;;;;;;;;4901593;29;20045;-63
2023/03/26 02:06:22;;;;;;;35.17;6.55;;;;;;;;;;4873875;29;20048;-63
2023/03/26 02:08:58;;;;;;;55.10;7.63;;;;;;;;;;4904329;29;20084;-63
2023/03/26 02:11:24;;;;;;;57.90;8.07;;;;;;;;;;4900845;29;20053;-63
2023/03/26 02:14:02;;;;;;;61.10;8.20;;;;;;;;;;4888186;29;20045;-63
2023/03/26 02:16:28;;;;;;;84.22;9.70;;;;;;;;;;4887773;29;20410;-63
2023/03/26 02:18:55;;;;;;;40.97;7.38;;;;;;;;;;4903438;29;20555;-63
2023/03/26 02:21:24;;;;;;;74.70;8.77;;;;;;;;;;4887924;29;20499;-63
2023/03/26 02:24:02;;;;;;;56.20;7.63;;;;;;;;;;4873948;29;20045;-63
2023/03/26 02:26:33;;;;;;;58.85;8.60;;;;;;;;;;4903492;29;20053;-64
2023/03/26 02:29:06;;;;;;;77.35;9.88;;;;;;;;;;4884789;29;20080;-63
2023/03/26 02:31:34;;;;;;;67.50;8.90;;;;;;;;;;4902522;29;20413;-62
2023/03/26 02:34:01;;;;;;;54.60;8.10;;;;;;;;;;4887901;29;20580;-62
2023/03/26 02:36:30;;;;;;;96.22;10.85;;;;;;;;;;4903358;29;20061;-62
2023/03/26 02:39:00;;;;;;;48.55;8.07;;;;;;;;;;4904084;29;20133;-63
2023/03/26 02:41:30;;;;;;;71.70;9.30;;;;;;;;;;4885329;29;20190;-63
2023/03/26 02:44:00;;;;;;;66.68;8.95;;;;;;;;;;4887535;29;20056;-63
2023/03/26 02:46:45;;;;;;;53.03;7.85;;;;;;;;;;4870048;29;20137;-63
2023/03/26 02:49:31;;;;;;;76.70;9.45;;;;;;;;;;4873161;29;20048;-63
2023/03/26 02:51:57;;;;;;;56.63;7.95;;;;;;;;;;4873327;29;20503;-63
2023/03/26 02:54:25;;;;;;;69.13;8.77;;;;;;;;;;4900348;29;20128;-63
2023/03/26 02:57:21;;;;;;;55.35;7.60;;;;;;;;;;4873509;29;20545;-63
2023/03/26 03:00:12;;;;;;;65.38;8.73;;;;;;;;;;4874093;29;20052;-63
2023/03/26 03:02:46;;;;;;;63.72;8.43;;;;;;;;;;4875813;29;20067;-63
2023/03/26 03:05:30;;;;;;;67.40;8.23;;;;;;;;;;4873936;29;20059;-63
2023/03/26 03:08:20;;;;;;;33.83;6.15;;;;;;;;;;4873633;29;20522;-63
2023/03/26 03:11:20;;;;;;;58.38;7.18;;;;;;;;;;4881376;29;20145;-63
2023/03/26 03:13:49;;;;;;;43.20;7.00;;;;;;;;;;4890865;29;20072;-63
2023/03/26 03:16:22;;;;;;;51.67;7.38;;;;;;;;;;4875443;29;20403;-63
2023/03/26 03:18:53;;;;;;;37.30;6.18;;;;;;;;;;4876620;29;20060;-63
2023/03/26 03:21:21;;;;;;;61.78;8.30;;;;;;;;;;4888160;29;20049;-63
2023/03/26 03:23:48;;;;;;;73.82;8.57;;;;;;;;;;4909661;29;20136;-64
2023/03/26 03:26:16;;;;;;;46.75;6.78;;;;;;;;;;4890865;29;20056;-64
2023/03/26 03:28:49;;;;;;;44.97;5.88;;;;;;;;;;4906056;29;20477;-64
2023/03/26 03:31:16;;;;;;;58.35;7.30;;;;;;;;;;4876203;29;20049;-63
2023/03/26 03:33:45;;;;;;;81.47;8.10;;;;;;;;;;4906016;29;20582;-63
2023/03/26 03:36:13;;;;;;;51.97;6.60;;;;;;;;;;4891542;29;20053;-63
2023/03/26 03:39:00;;;;;;;44.03;6.05;;;;;;;;;;4891003;29;20057;-62
2023/03/26 03:41:28;;;;;;;72.23;7.43;;;;;;;;;;4887898;29;20052;-62
2023/03/26 03:43:55;;;;;;;53.75;6.53;;;;;;;;;;4889913;29;20841;-63
2023/03/26 03:46:26;;;;;;;40.28;6.07;;;;;;;;;;4890053;29;20131;-63
2023/03/26 03:48:53;;;;;;;69.20;7.53;;;;;;;;;;4890286;29;20053;-63
2023/03/26 03:51:24;;;;;;;38.80;6.28;;;;;;;;;;4906200;29;20594;-63
2023/03/26 03:53:59;;;;;;;45.25;6.13;;;;;;;;;;4906689;29;20045;-62
2023/03/26 03:56:41;;;;;;;65.32;6.97;;;;;;;;;;4889942;29;20045;-63
2023/03/26 03:59:27;;;;;;;78.88;8.05;;;;;;;;;;4888356;29;20148;-62
2023/03/26 04:01:53;;;;;;;51.70;6.47;;;;;;;;;;4905634;29;20052;-63
2023/03/26 04:04:38;;;;;;;86.28;9.18;;;;;;;;;;4887560;29;20897;-63
2023/03/26 04:07:09;;;;;;;42.15;6.32;;;;;;;;;;4890324;29;20052;-62
2023/03/26 04:10:02;;;;;;;94.72;9.80;;;;;;;;;;4891197;29;20049;-62
2023/03/26 04:12:49;;;;;;;45.65;7.18;;;;;;;;;;4891169;29;20036;-63
2023/03/26 04:15:17;;;;;;;87.57;8.68;;;;;;;;;;4876050;29;20116;-63
2023/03/26 04:17:46;;;;;;;32.00;5.57;;;;;;;;;;4876097;29;20506;-62
2023/03/26 04:20:15;;;;;;;42.17;6.00;;;;;;;;;;4875352;29;20586;-62
2023/03/26 04:22:45;;;;;;;64.43;7.55;;;;;;;;;;4890989;29;20092;-62
2023/03/26 04:25:14;;;;;;;59.85;6.75;;;;;;;;;;4890986;29;20041;-63
2023/03/26 04:27:57;;;;;;;80.15;8.05;;;;;;;;;;4891110;29;20104;-63
2023/03/26 04:30:44;;;;;;;86.00;8.40;;;;;;;;;;4891163;29;20218;-62
2023/03/26 04:33:32;;;;;;;72.18;7.07;;;;;;;;;;4891400;29;20052;-62
2023/03/26 04:36:01;;;;;;;44.67;5.80;;;;;;;;;;4875865;29;20120;-62
2023/03/26 04:38:32;;;;;;;66.18;6.85;;;;;;;;;;4891026;29;20044;-63
2023/03/26 04:41:01;;;;;;;45.85;5.65;;;;;;;;;;4890785;29;20048;-63
2023/03/26 04:44:05;;;;;;;31.70;4.80;;;;;;;;;;4887216;29;20092;-63
2023/03/26 04:46:42;;;;;;;59.47;6.55;;;;;;;;;;4888020;29;20546;-63
2023/03/26 04:49:18;;;;;;;47.85;6.15;;;;;;;;;;4888966;29;20041;-62
2023/03/26 04:51:45;;;;;;;35.88;4.68;;;;;;;;;;4888982;29;20076;-62
2023/03/26 04:54:30;;;;;;;61.83;6.35;;;;;;;;;;4874885;29;20148;-62
2023/03/26 04:57:03;;;;;;;72.43;7.28;;;;;;;;;;4905358;29;20072;-62
2023/03/26 04:59:44;;;;;;;47.05;5.45;;;;;;;;;;4888682;29;20128;-62
2023/03/26 05:02:12;;;;;;;41.30;5.07;;;;;;;;;;4888837;29;20055;-63
2023/03/26 05:04:51;;;;;;;58.45;6.70;;;;;;;;;;4870673;29;20533;-63
2023/03/26 05:07:19;;;;;;;34.22;4.80;;;;;;;;;;4870744;29;20049;-63
2023/03/26 05:09:49;;;;;;;55.03;6.10;;;;;;;;;;4888814;29;20049;-63
2023/03/26 05:12:21;;;;;;;41.95;6.05;;;;;;;;;;4905409;29;20045;-62
2023/03/26 05:15:17;;;;;;;75.65;7.28;;;;;;;;;;4874153;29;20052;-62
2023/03/26 05:17:57;;;;;;;54.88;6.45;;;;;;;;;;4889480;29;20049;-62
2023/03/26 05:20:29;;;;;;;61.85;7.22;;;;;;;;;;4888079;29;20127;-61
2023/03/26 05:22:56;;;;;;;39.15;6.20;;;;;;;;;;4905590;29;20052;-62
2023/03/26 05:25:31;;;;;;;201.02;16.13;;;;;;;;;;4886664;29;20037;-55
2023/03/26 05:27:59;;;;;;;105.10;11.00;;;;;;;;;;4885264;29;20410;-52
2023/03/26 05:30:34;;;;;;;71.78;9.60;;;;;;;;;;4904156;29;20041;-57
2023/03/26 05:33:03;;;;;;;60.15;8.95;;;;;;;;;;4905201;29;20525;-57
2023/03/26 05:35:38;;;;;;;50.80;7.30;;;;;;;;;;4886693;29;20471;-54
2023/03/26 05:38:07;;;;;;;71.70;8.25;;;;;;;;;;4887875;29;20041;-53
2023/03/26 05:40:33;;;;;;;81.63;9.15;;;;;;;;;;4873436;29;20040;-55
2023/03/26 05:43:02;;;;;;;50.85;7.22;;;;;;;;;;4904326;29;20570;-50
2023/03/26 05:45:46;;;;;;;123.35;11.75;;;;;;;;;;4886694;29;20049;-56
2023/03/26 05:48:23;;;;;;;52.20;7.00;;;;;;;;;;4889477;29;20562;-55
2023/03/26 05:50:51;;;;;;;41.95;7.18;;;;;;;;;;4887701;29;20475;-54
2023/03/26 05:53:19;;;;;;;63.20;7.25;;;;;;;;;;4873664;29;20128;-54
2023/03/26 05:55:49;;;;;;;45.53;6.70;;;;;;;;;;4873505;29;20113;-57
2023/03/26 05:58:35;;;;;;;50.03;6.32;;;;;;;;;;4870766;29;20056;-56
2023/03/26 06:01:21;;;;;;;51.92;6.45;;;;;;;;;;4873845;29;20181;-56
2023/03/26 06:04:06;;;;;;;51.50;6.85;;;;;;;;;;4873666;29;20064;-55
2023/03/26 06:06:38;;;;;;;76.10;8.38;;;;;;;;;;4903391;29;20164;-56
2023/03/26 06:09:05;;;;;;;58.13;6.80;;;;;;;;;;4873796;29;20055;-57
2023/03/26 06:11:32;;;;;;;63.70;7.38;;;;;;;;;;4873439;29;20045;-56
2023/03/26 06:14:00;;;;;;;44.20;6.00;;;;;;;;;;4887498;29;20049;-55
2023/03/26 06:16:27;;;;;;;40.35;5.78;;;;;;;;;;4887933;29;20132;-54
2023/03/26 06:19:26;;;;;;;98.93;9.68;;;;;;;;;;4873571;29;20424;-54
2023/03/26 06:22:11;;;;;;;79.07;8.27;;;;;;;;;;4869527;29;20085;-56
2023/03/26 06:25:10;;;;;;;63.78;6.55;;;;;;;;;;4867026;29;20088;-56
2023/03/26 06:27:49;;;;;;;69.45;7.80;;;;;;;;;;4902267;29;20501;-56
2023/03/26 06:30:36;;;;;;;78.30;7.85;;;;;;;;;;4879415;29;20059;-53
2023/03/26 06:33:21;;;;;;;56.95;6.53;;;;;;;;;;4879617;29;20057;-53
2023/03/26 06:35:50;;;;;;;71.63;7.18;;;;;;;;;;4882568;29;20059;-53
2023/03/26 06:38:16;;;;;;;89.35;8.45;;;;;;;;;;4883061;29;20041;-55
2023/03/26 06:40:43;;;;;;;39.47;5.18;;;;;;;;;;4883447;29;20059;-57
2023/03/26 06:43:37;;;;;;;82.10;7.70;;;;;;;;;;4884281;29;20049;-56
2023/03/26 06:46:24;;;;;;;62.88;6.57;;;;;;;;;;4884886;29;20057;-56
2023/03/26 06:48:51;;;;;;;69.70;6.95;;;;;;;;;;4884703;29;20101;-55
2023/03/26 06:51:29;;;;;;;64.93;6.93;;;;;;;;;;4885202;29;20040;-56
2023/03/26 06:54:14;;;;;;;91.63;8.48;;;;;;;;;;4882430;29;20481;-55
2023/03/26 06:56:50;;;;;;;54.90;6.13;;;;;;;;;;4882331;29;20049;-56
2023/03/26 06:59:54;;;;;;;39.40;5.15;;;;;;;;;;4888218;29;20410;-57
2023/03/26 07:02:39;;;;;;;59.00;6.35;;;;;;;;;;4883737;29;20611;-62
2023/03/26 07:05:25;;;;;;;63.40;6.72;;;;;;;;;;4882462;29;20159;-62
2023/03/26 07:08:30;;;;;;;63.45;6.70;;;;;;;;;;4879334;29;20431;-65
2023/03/26 07:11:18;;;;;;;36.83;5.72;;;;;;;;;;4875976;29;20102;-62
2023/03/26 07:14:07;;;;;;;73.25;7.85;;;;;;;;;;4901697;29;20041;-63
2023/03/26 07:16:59;;;;;;;42.47;6.60;;;;;;;;;;4875197;29;20047;-62
2023/03/26 07:19:33;;;;;;;69.80;7.70;;;;;;;;;;4890435;29;20037;-63
2023/03/26 07:22:00;;;;;;;52.95;6.47;;;;;;;;;;4890856;29;20135;-63
2023/03/26 07:24:56;;;;;;;33.92;5.45;;;;;;;;;;4894439;29;20115;-63
2023/03/26 07:27:37;;;;;;;75.60;8.15;;;;;;;;;;4892303;29;20506;-63
2023/03/26 07:30:22;;;;;;;48.08;5.63;;;;;;;;;;4877480;29;20574;-63
2023/03/26 07:33:23;;;;;;;87.18;8.30;;;;;;;;;;4886365;29;20056;-63
2023/03/26 07:36:38;;;;;;;77.60;7.93;;;;;;;;;;4877081;29;20056;-63
2023/03/26 07:39:33;;;;;;;76.63;7.78;;;;;;;;;;4887127;29;20078;-63
2023/03/26 07:42:36;;;;;;;52.40;5.90;;;;;;;;;;4876836;29;20547;-63
2023/03/26 07:45:36;;;;;;;78.73;7.97;;;;;;;;;;4857933;29;20848;-63
2023/03/26 07:48:20;;;;;;;32.33;4.07;;;;;;;;;;4854914;29;20285;-63
2023/03/26 07:50:58;;;;;;;48.33;5.38;;;;;;;;;;4839569;29;20058;-63
2023/03/26 07:53:44;;;;;;;31.15;4.65;;;;;;;;;;4854958;29;20048;-63
2023/03/26 07:56:20;;;;;;;59.83;6.65;;;;;;;;;;4854366;29;20677;-63
2023/03/26 07:59:19;;;;;;;54.63;6.03;;;;;;;;;;4854211;29;20050;-63
2023/03/26 08:02:13;;;;;;;49.08;6.20;;;;;;;;;;4851820;29;20049;-63
2023/03/26 08:04:54;;;;;;;53.88;6.00;;;;;;;;;;4851454;29;20160;-63
2023/03/26 08:07:51;;;;;;;51.55;5.57;;;;;;;;;;4844850;29;20066;-63
2023/03/26 08:10:30;;;;;;;36.25;4.60;;;;;;;;;;4851311;29;20053;-63
2023/03/26 08:13:25;;;;;;;74.22;7.45;;;;;;;;;;4837377;29;20689;-63
2023/03/26 08:16:04;;;;;;;51.70;5.53;;;;;;;;;;4850992;29;20054;-63
2023/03/26 08:18:37;;;;;;;35.70;4.85;;;;;;;;;;4839356;29;20080;-62
2023/03/26 08:21:09;;;;;;;68.23;7.27;;;;;;;;;;4855803;29;20053;-63
2023/03/26 08:23:55;;;;;;;63.35;7.25;;;;;;;;;;4875253;29;20116;-63
2023/03/26 08:26:40;;;;;;;33.40;5.82;;;;;;;;;;4872901;29;20049;-62
2023/03/26 08:29:10;;;;;;;40.63;5.93;;;;;;;;;;4871796;29;20056;-63
2023/03/26 08:31:38;;;;;;;54.75;6.65;;;;;;;;;;4875021;29;20041;-63
2023/03/26 08:34:05;;;;;;;65.45;6.70;;;;;;;;;;4874780;29;20060;-63
2023/03/26 08:36:31;;;;;;;69.40;7.75;;;;;;;;;;4875348;29;20045;-63
2023/03/26 08:38:58;;;;;;;48.45;6.15;;;;;;;;;;4875222;29;20045;-63
2023/03/26 08:41:35;;;;;;;88.63;8.50;;;;;;;;;;4874271;29;20575;-64
2023/03/26 08:44:08;;;;;;;43.88;5.13;;;;;;;;;;4871981;29;20041;-64
2023/03/26 08:46:35;;;;;;;85.75;8.02;;;;;;;;;;4874381;29;20057;-64
2023/03/26 08:49:14;;;;;;;54.42;5.80;;;;;;;;;;4904392;29;20128;-63
2023/03/26 08:51:56;;;;;;;65.05;6.43;;;;;;;;;;4872566;29;20868;-63
2023/03/26 08:54:40;;;;;;;34.03;4.43;;;;;;;;;;4890234;29;20570;-63
2023/03/26 08:57:29;;;;;;;72.25;7.05;;;;;;;;;;4889393;29;20041;-63
2023/03/26 09:00:19;;;;;;;38.78;4.80;;;;;;;;;;4871782;29;20073;-63
2023/03/26 09:02:51;;;;;;;51.90;5.35;;;;;;;;;;4874464;29;20063;-56
2023/03/26 09:05:20;;;;;;;58.55;6.00;;;;;;;;;;4872389;29;20057;-55
2023/03/26 09:08:02;;;;;;;60.60;5.95;;;;;;;;;;4874667;29;20052;-52
2023/03/26 09:10:47;;;;;;;39.30;4.75;;;;;;;;;;4871999;29;20059;-56
2023/03/26 09:13:20;;;;;;;45.10;5.35;;;;;;;;;;4871016;29;20045;-57
2023/03/26 09:15:52;;;;;;;52.63;5.47;;;;;;;;;;4874205;29;20045;-54
2023/03/26 09:18:37;;;;;;;72.20;7.73;;;;;;;;;;4874760;29;20112;-57
2023/03/26 09:21:07;;;;;;;60.15;5.85;;;;;;;;;;4874420;29;20348;-56
2023/03/26 09:23:56;;;;;;;88.68;7.60;;;;;;;;;;4874113;29;20407;-57
2023/03/26 09:26:28;;;;;;;75.05;6.85;;;;;;;;;;4834554;29;20077;-53
2023/03/26 09:29:10;;;;;;;34.58;4.55;;;;;;;;;;4834879;29;20137;-53
2023/03/26 09:31:56;;;;;;;57.72;5.93;;;;;;;;;;4832400;29;20627;-56
2023/03/26 09:34:26;;;;;;;43.33;5.10;;;;;;;;;;4836154;29;20534;-56
2023/03/26 09:37:10;;;;;;;43.40;4.93;;;;;;;;;;4834479;29;20419;-56
2023/03/26 09:39:55;;;;;;;86.20;7.82;;;;;;;;;;4831365;29;20103;-54
2023/03/26 09:42:21;;;;;;;88.18;7.78;;;;;;;;;;4835003;29;20046;-53
2023/03/26 09:44:59;;;;;;;27.35;3.90;;;;;;;;;;4833723;29;20084;-54
2023/03/26 09:47:33;;;;;;;69.90;6.30;;;;;;;;;;4833633;29;20117;-53
2023/03/26 09:50:00;;;;;;;42.22;4.80;;;;;;;;;;4833986;29;20054;-56
2023/03/26 09:52:38;;;;;;;52.72;5.50;;;;;;;;;;4834458;29;20054;-55
2023/03/26 09:55:14;;;;;;;112.82;9.65;;;;;;;;;;4833887;29;20073;-56
2023/03/26 09:57:57;;;;;;;49.20;6.53;;;;;;;;;;4834513;29;20477;-56
2023/03/26 10:00:24;;;;;;;67.72;8.27;;;;;;;;;;4834462;29;20041;-54
2023/03/26 10:03:06;;;;;;;53.28;7.70;;;;;;;;;;4842792;29;20419;-54
2023/03/26 10:05:43;;;;;;;115.05;11.93;;;;;;;;;;4869962;29;20076;-54
2023/03/26 10:08:19;;;;;;;68.50;9.82;;;;;;;;;;4873678;29;20132;-53
2023/03/26 10:10:45;;;;;;;69.35;9.13;;;;;;;;;;4869193;29;20112;-57
2023/03/26 10:13:22;;;;;;;56.83;8.95;;;;;;;;;;4873224;29;20455;-57
2023/03/26 10:15:51;;;;;;;102.40;11.57;;;;;;;;;;4873172;29;20058;-54
2023/03/26 10:18:30;;;;;;;65.00;9.00;;;;;;;;;;4874495;29;20091;-53
2023/03/26 10:21:12;;;;;;;50.25;8.15;;;;;;;;;;4873348;29;20044;-54
2023/03/26 10:23:41;;;;;;;46.05;7.20;;;;;;;;;;4876653;29;20152;-55
2023/03/26 10:26:23;;;;;;;61.50;8.88;;;;;;;;;;4870168;29;20040;-51
2023/03/26 10:28:57;;;;;;;63.50;8.55;;;;;;;;;;4873441;29;20045;-54
2023/03/26 10:31:39;;;;;;;62.10;8.43;;;;;;;;;;4869725;29;20070;-53
2023/03/26 10:34:19;;;;;;;69.32;8.77;;;;;;;;;;4886678;29;20045;-54
2023/03/26 10:36:59;;;;;;;69.95;6.90;;;;;;;;;;4872498;29;20422;-54
2023/03/26 10:39:38;;;;;;;55.80;6.00;;;;;;;;;;4874365;29;20388;-54
2023/03/26 10:42:10;;;;;;;54.65;6.10;;;;;;;;;;4873931;29;20048;-55
2023/03/26 10:44:39;;;;;;;88.53;7.90;;;;;;;;;;4872946;29;20045;-52
2023/03/26 10:47:13;;;;;;;47.25;5.38;;;;;;;;;;4873036;29;20041;-54
2023/03/26 10:49:42;;;;;;;200.80;15.68;;;;;;;;;;4868484;29;20407;-63
2023/03/26 10:52:11;;;;;;;62.28;5.85;;;;;;;;;;4869997;29;20077;-63
2023/03/26 10:54:47;;;;;;;65.35;6.35;;;;;;;;;;4890686;29;20049;-63
2023/03/26 10:57:37;;;;;;;49.00;4.90;;;;;;;;;;4873476;29;20037;-63
2023/03/26 11:00:24;;;;;;;66.68;5.95;;;;;;;;;;4873337;29;20487;-63
2023/03/26 11:02:50;;;;;;;29.70;3.72;;;;;;;;;;4872167;29;20045;-63
2023/03/26 11:05:35;;;;;;;64.95;5.60;;;;;;;;;;4872147;29;20148;-63
2023/03/26 11:08:15;;;;;;;53.00;4.72;;;;;;;;;;4870251;29;20045;-63
2023/03/26 11:10:44;;;;;;;93.25;6.97;;;;;;;;;;4869081;29;20529;-63
2023/03/26 11:13:14;;;;;;;44.72;4.03;;;;;;;;;;4887341;29;20053;-63
2023/03/26 11:15:45;;;;;;;65.03;5.30;;;;;;;;;;4872766;29;20057;-63
2023/03/26 11:18:34;;;;;;;65.38;5.18;;;;;;;;;;4872832;29;20053;-62
2023/03/26 11:21:03;;;;;;;52.58;4.70;;;;;;;;;;4902583;29;20049;-62
2023/03/26 11:23:55;;;;;;;41.40;4.05;;;;;;;;;;4877925;29;20044;-63
2023/03/26 11:26:51;;;;;;;96.32;7.43;;;;;;;;;;4872638;29;20072;-63
2023/03/26 11:29:18;;;;;;;66.25;5.65;;;;;;;;;;4888491;29;20763;-62
2023/03/26 11:32:07;;;;;;;54.55;4.88;;;;;;;;;;4873979;29;20049;-63
2023/03/26 11:34:37;;;;;;;65.45;5.65;;;;;;;;;;4875675;29;20104;-62
2023/03/26 11:37:05;;;;;;;89.43;7.05;;;;;;;;;;4871849;29;20395;-65
2023/03/26 11:39:37;;;;;;;53.10;4.97;;;;;;;;;;4876246;29;20057;-64
2023/03/26 11:42:13;;;;;;;55.50;5.17;;;;;;;;;;4890027;29;20060;-63
2023/03/26 11:44:52;;;;;;;44.05;4.55;;;;;;;;;;4875329;29;20287;-63
2023/03/26 11:47:20;;;;;;;52.05;4.63;;;;;;;;;;4873012;29;20053;-63
2023/03/26 11:49:48;;;;;;;70.95;6.07;;;;;;;;;;4875297;29;20045;-64
2023/03/26 11:52:15;;;;;;;92.82;8.05;;;;;;;;;;4874395;29;20052;-64
2023/03/26 11:54:49;;;;;;;78.38;6.75;;;;;;;;;;4874825;29;20045;-64
2023/03/26 11:57:21;;;;;;;71.90;6.28;;;;;;;;;;4875735;29;20037;-63
2023/03/26 11:59:51;;;;;;;42.57;4.87;;;;;;;;;;4874836;29;20053;-65
2023/03/26 12:02:24;;;;;;;78.18;6.63;;;;;;;;;;4874762;29;20292;-65
2023/03/26 12:04:55;;;;;;;54.05;5.15;;;;;;;;;;4889325;29;20065;-65
2023/03/26 12:07:30;;;;;;;72.03;5.95;;;;;;;;;;4888750;29;20149;-65
2023/03/26 12:10:01;;;;;;;51.95;5.05;;;;;;;;;;4875294;29;20049;-65
2023/03/26 12:12:45;;;;;;;121.53;9.13;;;;;;;;;;4874586;29;20607;-65
2023/03/26 12:15:17;;;;;;;167.13;11.70;;;;;;;;;;4875706;29;20045;-54
2023/03/26 12:17:45;;;;;;;76.28;6.22;;;;;;;;;;4873833;29;20047;-56
2023/03/26 12:20:25;;;;;;;89.20;7.95;;;;;;;;;;4900559;29;20043;-52
2023/03/26 12:22:59;;;;;;;77.78;6.90;;;;;;;;;;4874483;29;20052;-56
2023/03/26 12:25:30;;;;;;;80.32;7.63;;;;;;;;;;4889060;29;20105;-55
2023/03/26 12:28:12;;;;;;;42.97;4.70;;;;;;;;;;4873800;29;20124;-55
2023/03/26 12:30:40;;;;;;;111.28;8.68;;;;;;;;;;4874049;29;20060;-57
2023/03/26 12:33:18;;;;;;;44.20;4.70;;;;;;;;;;4875230;29;20078;-57
2023/03/26 12:35:45;;;;;;;117.47;17.33;;;;;;;;;;4872027;29;20406;-57
2023/03/26 12:38:18;;;;;;;93.10;8.73;;;;;;;;;;4874678;29;20498;-56
2023/03/26 12:40:44;;;;;;;162.82;34.35;;;;;;;;;;4874191;29;20085;-56
2023/03/26 12:43:20;;;;;;;89.07;8.50;;;;;;;;;;4904466;29;20071;-56
2023/03/26 12:46:25;;;;;;;81.78;7.20;;;;;;;;;;4874552;29;20049;-57
2023/03/26 12:49:11;;;;;;;61.42;6.70;;;;;;;;;;4874641;29;20053;-56
2023/03/26 12:51:51;;;;;;;115.80;9.63;;;;;;;;;;4873983;29;20096;-55
2023/03/26 12:54:25;;;;;;;34.28;4.40;;;;;;;;;;4873928;29;20045;-56
2023/03/26 12:57:25;;;;;;;61.58;5.45;;;;;;;;;;4873543;29;20057;-57
2023/03/26 12:59:51;;;;;;;54.72;5.07;;;;;;;;;;4834425;29;20078;-56
2023/03/26 13:02:31;;;;;;;63.40;5.95;;;;;;;;;;4834394;29;20102;-57
2023/03/26 13:05:12;;;;;;;57.20;4.93;;;;;;;;;;4831589;29;20062;-56
2023/03/26 13:07:52;;;;;;;68.65;5.57;;;;;;;;;;4834135;29;20598;-57
2023/03/26 13:10:38;;;;;;;53.55;4.90;;;;;;;;;;4832210;29;20053;-57
2023/03/26 13:13:08;;;;;;;70.72;5.57;;;;;;;;;;4834516;29;20081;-56
2023/03/26 13:15:37;;;;;;;73.85;5.97;;;;;;;;;;4834431;29;20058;-54
2023/03/26 13:18:07;;;;;;;79.45;6.60;;;;;;;;;;4835168;29;20132;-57
2023/03/26 13:20:54;;;;;;;39.25;4.75;;;;;;;;;;4833600;29;20049;-56
2023/03/26 13:23:39;;;;;;;84.85;7.82;;;;;;;;;;4831968;29;20427;-55
2023/03/26 13:26:08;;;;;;;67.22;5.55;;;;;;;;;;4831875;29;20046;-54
2023/03/26 13:28:43;;;;;;;79.03;6.78;;;;;;;;;;4833886;29;20061;-57
2023/03/26 13:31:15;;;;;;;60.38;6.30;;;;;;;;;;4818898;29;20049;-51
2023/03/26 13:33:56;;;;;;;149.05;11.43;;;;;;;;;;4833672;29;20084;-55
2023/03/26 13:36:25;;;;;;;36.58;4.65;;;;;;;;;;4868468;29;20109;-52
2023/03/26 13:38:53;;;;;;;56.33;5.18;;;;;;;;;;4872637;29;20056;-55
2023/03/26 13:41:32;;;;;;;50.47;4.75;;;;;;;;;;4873422;29;20489;-56
2023/03/26 13:43:59;;;;;;;93.50;7.05;;;;;;;;;;4873421;29;20043;-55
2023/03/26 13:46:31;;;;;;;68.15;5.78;;;;;;;;;;4872434;29;20045;-65
2023/03/26 13:49:08;;;;;;;37.25;3.60;;;;;;;;;;4872937;29;20063;-65
2023/03/26 13:51:46;;;;;;;104.57;8.15;;;;;;;;;;4873862;29;20052;-65
2023/03/26 13:54:13;;;;;;;38.22;4.22;;;;;;;;;;4874273;29;20077;-64
2023/03/26 13:56:41;;;;;;;50.15;4.68;;;;;;;;;;4873770;29;20037;-65
2023/03/26 13:59:15;;;;;;;88.70;7.15;;;;;;;;;;4873049;29;20549;-65
2023/03/26 14:01:52;;;;;;;51.63;4.80;;;;;;;;;;4873934;29;20416;-64
2023/03/26 14:04:20;;;;;;;85.53;7.03;;;;;;;;;;4869471;29;20387;-64
2023/03/26 14:07:02;;;;;;;50.13;5.07;;;;;;;;;;4873722;29;20052;-65
2023/03/26 14:09:30;;;;;;;65.30;5.97;;;;;;;;;;4874046;29;20064;-64
2023/03/26 14:11:57;;;;;;;40.17;4.43;;;;;;;;;;4873399;29;20056;-64
2023/03/26 14:14:47;;;;;;;38.72;4.57;;;;;;;;;;4873575;29;20048;-67
2023/03/26 14:17:46;;;;;;;65.63;6.43;;;;;;;;;;4869675;29;20712;-67
2023/03/26 14:20:31;;;;;;;82.68;7.75;;;;;;;;;;4851290;29;20065;-66
2023/03/26 14:23:15;;;;;;;57.92;5.85;;;;;;;;;;4848183;29;20049;-65
2023/03/26 14:25:56;;;;;;;42.92;4.38;;;;;;;;;;4852562;29;20053;-65
2023/03/26 14:28:25;;;;;;;66.05;5.93;;;;;;;;;;4851990;29;20407;-66
2023/03/26 14:31:02;;;;;;;71.82;6.47;;;;;;;;;;4852807;29;20122;-66
2023/03/26 14:33:34;;;;;;;106.30;8.25;;;;;;;;;;4852635;29;20073;-66
2023/03/26 14:36:20;;;;;;;45.05;4.63;;;;;;;;;;4853097;29;20096;-65
2023/03/26 14:39:05;;;;;;;35.05;4.15;;;;;;;;;;4852131;29;20050;-65
2023/03/26 14:41:46;;;;;;;46.70;4.82;;;;;;;;;;4852808;29;20046;-66
2023/03/26 14:44:24;;;;;;;55.83;5.55;;;;;;;;;;4852339;29;20054;-65
2023/03/26 14:47:06;;;;;;;43.03;4.03;;;;;;;;;;4852839;29;20081;-66
2023/03/26 14:49:53;;;;;;;96.25;7.65;;;;;;;;;;4851580;29;20135;-66
2023/03/26 14:52:28;;;;;;;41.45;4.18;;;;;;;;;;4833905;29;20054;-56
2023/03/26 14:54:56;;;;;;;47.83;4.32;;;;;;;;;;4830860;29;20605;-57
2023/03/26 14:57:37;;;;;;;44.15;4.25;;;;;;;;;;4837199;29;20069;-58
2023/03/26 15:00:22;;;;;;;81.30;6.50;;;;;;;;;;4837147;29;20473;-58
2023/03/26 15:03:06;;;;;;;51.50;4.45;;;;;;;;;;4837111;29;20126;-56
2023/03/26 15:05:51;;;;;;;61.67;5.65;;;;;;;;;;4836453;29;20061;-57
2023/03/26 15:08:18;;;;;;;67.15;5.93;;;;;;;;;;4835990;29;20801;-57
2023/03/26 15:11:03;;;;;;;59.65;5.25;;;;;;;;;;4835619;29;20092;-58
2023/03/26 15:13:52;;;;;;;87.53;6.72;;;;;;;;;;4835575;29;20054;-57
2023/03/26 15:16:37;;;;;;;61.30;5.28;;;;;;;;;;4835814;29;20137;-55
2023/03/26 15:19:09;;;;;;;90.47;6.70;;;;;;;;;;4831888;29;20128;-57
2023/03/26 15:21:56;;;;;;;59.63;4.90;;;;;;;;;;4835571;29;20045;-57